Aneta, ND

6:28 PM CST on December 17, 2014 (GMT -0600)
Grand Forks Air Force Base | Change Station
CLOSE
Current Station
Airport
Location: Grand Forks AFB,
Elevation: 912 ft
Nearby Weather Stations

Elev 912 ft 47.96 °N, 97.40 °W | Updated 30 minutes ago

Clear
Clear
8 °F
Feels Like 8 °F
N
1
Wind Variable Wind from SSW

Today
High -- | Low -- °F
--% Chance of Precip.
Yesterday
High -- | Low -- °F
Precip. -- in
8:15 AM 4:40 PM
Waning Crescent, 18% visible
Pressure 30.41 in
Visibility 10.0 miles
Clouds Clear
Dew Point 8 °F
Humidity 98%
Rainfall 0.00 in
Snow Depth Not available.
UV 0 out of 12
Pollen .10 out of 12
Air Quality Not available.
Flu Activity Not available.
METAR KRDR 172358Z AUTO 21001KT 10SM CLR M13/M13 A3032 RMK AO2 SLP297 T11331135 11079 21133 58002

More Conditions Fewer Conditions

Pressure 30.41 in
Visibility 10.0 miles
Clouds Clear
Dew Point 8 °F
Humidity 98%
Rainfall 0.00 in
Snow Depth Not available.
UV 0 out of 12
Pollen .10 out of 12
Air Quality Not available.
Flu Activity Not available.
METAR KRDR 172358Z AUTO 21001KT 10SM CLR M13/M13 A3032 RMK AO2 SLP297 T11331135 11079 21133 58002

More Conditions Fewer Conditions

10-Day Weather Forecast

Almanac

Astronomy

Dec. 17, 2014 Rise Set
Actual Time
Civil Twilight
Nautical Twilight
Astronomical Twilight
Moon
Length of Visible Light
Length of Day
Tomorrow will be .
, % of the Moon is Illuminated

Today's Extremes

State Highs State Lows

Community

WunderPhotos

Upload Photos

1,778,835 photos uploaded!

WunderBlogs® & News

Nearby

Air Quality

  Air Quality AQ Index Pollutant
Not available.

Snow Depth

Station Depth Elevation

Earthquake Activity

City Distance Mag. Time & Date
Minimum magnitude displayed is 2.5.

Coastal Water Temperatures

Place Temperature

Nearby Weather Stations